createdAt,value
2024-02-02T00:04:58.887Z,101691.69
2024-02-02T00:10:00.500Z,101699.00
2024-02-02T00:15:05.675Z,101696.53
2024-02-02T00:20:09.980Z,101703.19
2024-02-02T00:25:11.639Z,101696.22
2024-02-02T00:30:13.602Z,101682.22
2024-02-02T00:35:15.335Z,101676.06
2024-02-02T00:40:19.902Z,101677.81
2024-02-02T00:45:22.818Z,101680.47
2024-02-02T00:50:24.200Z,101680.59
2024-02-02T00:55:25.744Z,101676.47
2024-02-02T01:00:27.264Z,101705.59
2024-02-02T01:05:32.334Z,101698.84
2024-02-02T01:10:33.812Z,101653.09
2024-02-02T01:15:38.265Z,101692.50
2024-02-02T01:20:40.575Z,101680.31
2024-02-02T01:25:42.191Z,101672.22
2024-02-02T01:30:43.640Z,101687.41
2024-02-02T01:35:45.369Z,101677.13
2024-02-02T01:40:46.691Z,101678.06
2024-02-02T01:45:47.998Z,101673.16
2024-02-02T01:50:50.429Z,101628.63
2024-02-02T01:55:52.090Z,101684.78
2024-02-02T02:00:54.441Z,101679.22
2024-02-02T02:05:56.303Z,101688.47
2024-02-02T02:10:58.367Z,101677.28
2024-02-02T02:16:00.080Z,101680.06
2024-02-02T02:21:27.081Z,101686.47
2024-02-02T02:26:29.506Z,101673.66
2024-02-02T02:31:30.895Z,101668.25
2024-02-02T02:36:34.834Z,101657.03
2024-02-02T02:41:36.538Z,101657.16
2024-02-02T02:46:38.229Z,101646.47
2024-02-02T02:51:39.633Z,101647.88
2024-02-02T02:56:43.907Z,101644.75
2024-02-02T03:01:46.117Z,101646.78
2024-02-02T03:06:47.922Z,101627.28
2024-02-02T03:11:49.387Z,101606.94
2024-02-02T03:16:50.707Z,101641.25
2024-02-02T03:21:52.230Z,101636.22
2024-02-02T03:26:53.593Z,101630.81
2024-02-02T03:31:54.928Z,101673.16
2024-02-02T03:36:56.421Z,101672.28
2024-02-02T03:41:57.778Z,101667.31
2024-02-02T03:46:59.398Z,101677.38
2024-02-02T03:52:08.356Z,101665.28
2024-02-02T03:57:10.511Z,101670.47
2024-02-02T04:02:12.351Z,101656.41
2024-02-02T04:07:13.689Z,101658.03
2024-02-02T04:12:17.252Z,101665.50
2024-02-02T04:17:18.837Z,101657.66
2024-02-02T04:22:20.321Z,101662.75
2024-02-02T04:27:22.461Z,101692.38
2024-02-02T04:32:23.916Z,101697.13
2024-02-02T04:37:25.250Z,101698.66
2024-02-02T04:42:27.336Z,101700.69
2024-02-02T04:47:28.996Z,101709.59
2024-02-02T04:52:31.783Z,101688.16
2024-02-02T04:57:33.235Z,101678.75
2024-02-02T05:02:34.777Z,101666.47
2024-02-02T05:07:36.982Z,101661.25
2024-02-02T05:12:41.393Z,101658.84
2024-02-02T05:17:45.434Z,101665.03
2024-02-02T05:22:47.013Z,101660.91
2024-02-02T05:27:48.583Z,101657.13
2024-02-02T05:32:49.964Z,101674.47
2024-02-02T05:37:53.302Z,101664.91
2024-02-02T05:42:54.976Z,101687.09
2024-02-02T05:47:56.515Z,101692.69
2024-02-02T05:52:57.922Z,101697.13
2024-02-02T05:57:59.971Z,101684.72
2024-02-02T06:03:01.784Z,101676.66
2024-02-02T06:08:03.939Z,101681.03
2024-02-02T06:13:07.890Z,101679.44
2024-02-02T06:18:09.716Z,101671.31
2024-02-02T06:23:13.216Z,101665.41
2024-02-02T06:28:15.793Z,101666.81
2024-02-02T06:33:18.670Z,101671.91
2024-02-02T06:38:21.993Z,101639.53
2024-02-02T06:43:23.585Z,101640.81
2024-02-02T06:48:25.831Z,101640.38
2024-02-02T06:53:30.320Z,101635.59
2024-02-02T06:58:46.529Z,101636.38
2024-02-02T07:03:48.645Z,101628.72
2024-02-02T07:08:53.235Z,101635.72
2024-02-02T07:13:54.691Z,101625.56
2024-02-02T07:18:56.767Z,101642.69
2024-02-02T07:23:59.712Z,101639.97
2024-02-02T07:29:06.913Z,101638.03
2024-02-02T07:34:30.581Z,101646.66
2024-02-02T07:39:32.544Z,101637.41
2024-02-02T07:44:35.503Z,101643.84
2024-02-02T07:49:37.289Z,101627.34
2024-02-02T07:54:38.714Z,101617.53
2024-02-02T07:59:40.126Z,101606.31
2024-02-02T08:04:41.574Z,101623.31
2024-02-02T08:09:43.220Z,101619.66
2024-02-02T08:14:44.664Z,101627.34
2024-02-02T08:19:46.474Z,101618.91
2024-02-02T08:24:47.946Z,101617.81
2024-02-02T08:29:49.787Z,101603.31
2024-02-02T08:34:51.431Z,101598.72
2024-02-02T08:39:54.013Z,101595.94
2024-02-02T08:44:56.809Z,101577.00
2024-02-02T08:50:02.195Z,101567.34
2024-02-02T08:55:20.397Z,101583.75
2024-02-02T09:00:41.335Z,101575.75
2024-02-02T09:06:00.352Z,101568.69
2024-02-02T09:11:03.753Z,101574.78
2024-02-02T09:16:05.948Z,101575.13
2024-02-02T09:21:08.978Z,101565.69
2024-02-02T09:26:16.423Z,101567.69
2024-02-02T09:31:23.691Z,101576.19
2024-02-02T09:36:30.132Z,101576.69
2024-02-02T09:41:52.644Z,101584.47
2024-02-02T09:47:03.767Z,101579.28
2024-02-02T09:52:20.186Z,101586.44
2024-02-02T09:57:52.125Z,101568.31
2024-02-02T10:03:19.033Z,101541.34
2024-02-02T10:08:44.782Z,101573.72
2024-02-02T10:14:05.118Z,101568.94
2024-02-02T10:19:43.658Z,101574.09
2024-02-02T10:24:51.893Z,101567.97
2024-02-02T10:30:20.027Z,101558.84
2024-02-02T10:35:48.415Z,101569.22
2024-02-02T10:41:03.856Z,101557.59
2024-02-02T10:46:30.440Z,101531.69
2024-02-02T10:52:00.326Z,101518.03
2024-02-02T10:57:27.943Z,101519.16
2024-02-02T11:02:46.915Z,101518.88
2024-02-02T11:08:03.510Z,101513.72
2024-02-02T11:13:22.429Z,101506.75
2024-02-02T11:18:54.327Z,101504.59
2024-02-02T11:24:06.589Z,101486.72
2024-02-02T11:29:19.696Z,101465.78
2024-02-02T11:34:39.771Z,101479.19
2024-02-02T11:39:57.812Z,101482.91
2024-02-02T11:45:01.054Z,101474.56
2024-02-02T11:50:07.846Z,101472.81
2024-02-02T11:55:33.292Z,101489.34
2024-02-02T12:00:56.527Z,101466.84
2024-02-02T12:06:04.961Z,101471.56
2024-02-02T12:11:11.724Z,101463.19
2024-02-02T12:16:13.536Z,101453.88
2024-02-02T12:21:16.780Z,101453.38
2024-02-02T12:26:18.624Z,101442.72
2024-02-02T12:31:20.093Z,101428.78
2024-02-02T12:36:22.765Z,101432.13
2024-02-02T12:41:24.939Z,101417.03
2024-02-02T12:46:28.403Z,101405.78
2024-02-02T12:51:30.646Z,101407.16
2024-02-02T12:56:32.123Z,101390.31
2024-02-02T13:01:34.245Z,101375.28
2024-02-02T13:06:36.353Z,101385.88
2024-02-02T13:11:43.612Z,101376.47
2024-02-02T13:16:45.031Z,101365.63
2024-02-02T13:21:46.985Z,101355.22
2024-02-02T13:26:52.641Z,101352.47
2024-02-02T13:31:54.199Z,101360.47
2024-02-02T13:37:02.230Z,101351.91
2024-02-02T13:42:06.303Z,101343.94
2024-02-02T13:47:13.663Z,101346.38
2024-02-02T13:52:15.270Z,101316.91
2024-02-02T13:57:17.808Z,101322.94
2024-02-02T14:02:20.979Z,101315.63
2024-02-02T14:07:23.651Z,101333.69
2024-02-02T14:12:25.313Z,101345.09
2024-02-02T14:17:26.889Z,101321.09
2024-02-02T14:22:28.687Z,101309.75
2024-02-02T14:27:41.220Z,101312.91
2024-02-02T14:32:42.852Z,101299.41
2024-02-02T14:37:44.556Z,101293.09
2024-02-02T14:42:46.203Z,101285.19
2024-02-02T14:47:48.974Z,101281.03
2024-02-02T14:52:50.606Z,101273.34
2024-02-02T14:57:53.293Z,101286.84
2024-02-02T15:02:55.256Z,101279.16
2024-02-02T15:07:57.200Z,101291.78
2024-02-02T15:12:58.724Z,101284.00
2024-02-02T15:18:00.910Z,101272.75
2024-02-02T15:23:02.625Z,101270.66
2024-02-02T15:28:04.537Z,101255.63
2024-02-02T15:33:05.995Z,101244.72
2024-02-02T15:38:10.251Z,101243.22
2024-02-02T15:43:14.190Z,101244.31
2024-02-02T15:48:16.228Z,101238.25
2024-02-02T15:53:19.270Z,101240.28
2024-02-02T15:58:20.798Z,101231.50
2024-02-02T16:03:22.539Z,101223.63
2024-02-02T16:08:24.107Z,101229.16
2024-02-02T16:13:25.491Z,101212.50
2024-02-02T16:18:27.222Z,101226.38
2024-02-02T16:23:28.766Z,101219.31
2024-02-02T16:28:30.627Z,101216.91
2024-02-02T16:33:32.062Z,101222.13
2024-02-02T16:38:35.985Z,101242.44
2024-02-02T16:43:39.967Z,101237.31
2024-02-02T16:48:41.696Z,101231.78
2024-02-02T16:53:43.233Z,101232.16
2024-02-02T16:58:45.376Z,101233.81
2024-02-02T17:03:46.887Z,101231.44
2024-02-02T17:08:48.475Z,101217.28
2024-02-02T17:13:50.109Z,101220.72
2024-02-02T17:18:53.375Z,101212.16
2024-02-02T17:23:55.159Z,101228.31
2024-02-02T17:29:00.517Z,101226.63
2024-02-02T17:34:08.989Z,101253.50
2024-02-02T17:39:10.654Z,101243.81
2024-02-02T17:44:13.407Z,101257.00
2024-02-02T17:49:15.387Z,101249.13
2024-02-02T17:54:16.834Z,101223.31
2024-02-02T17:59:19.385Z,101243.25
2024-02-02T18:04:21.056Z,101242.78
2024-02-02T18:09:22.727Z,101234.59
2024-02-02T18:14:27.687Z,101225.69
2024-02-02T18:19:31.866Z,101214.75
2024-02-02T18:24:33.953Z,101223.19
2024-02-02T18:29:35.511Z,101243.81
2024-02-02T18:34:37.767Z,101243.50
2024-02-02T18:39:39.429Z,101245.41
2024-02-02T18:44:41.139Z,101246.75
2024-02-02T18:49:43.381Z,101232.69
2024-02-02T18:54:44.950Z,101244.84
2024-02-02T18:59:46.604Z,101257.75
2024-02-02T19:04:48.150Z,101233.25
2024-02-02T19:09:52.587Z,101239.59
2024-02-02T19:14:54.418Z,101253.84
2024-02-02T19:19:56.362Z,101247.66
2024-02-02T19:24:59.898Z,101249.56
2024-02-02T19:30:01.909Z,101254.69
2024-02-02T19:35:03.686Z,101244.63
2024-02-02T19:40:05.761Z,101262.09
2024-02-02T19:45:07.275Z,101248.56
2024-02-02T19:50:09.026Z,101252.31
2024-02-02T19:55:10.374Z,101248.38
2024-02-02T20:00:14.855Z,101257.16
2024-02-02T20:05:16.777Z,101267.34
2024-02-02T20:10:18.109Z,101262.13
2024-02-02T20:15:19.598Z,101264.81
2024-02-02T20:20:21.656Z,101286.06
2024-02-02T20:25:23.088Z,101295.41
2024-02-02T20:30:24.826Z,101289.81
2024-02-02T20:35:27.096Z,101298.31
2024-02-02T20:40:31.594Z,101311.13
2024-02-02T20:45:33.086Z,101323.03
2024-02-02T20:50:34.530Z,101322.31
2024-02-02T20:55:36.013Z,101304.16
2024-02-02T21:00:40.042Z,101325.91
2024-02-02T21:05:41.723Z,101317.75
2024-02-02T21:10:43.266Z,101326.06
2024-02-02T21:15:45.319Z,101323.59
2024-02-02T21:20:53.108Z,101327.38
2024-02-02T21:25:56.886Z,101317.28
2024-02-02T21:31:00.068Z,101332.03
2024-02-02T21:36:04.230Z,101345.22
2024-02-02T21:41:06.054Z,101348.81
2024-02-02T21:46:07.622Z,101342.84
2024-02-02T21:51:10.657Z,101344.66
2024-02-02T21:56:12.139Z,101334.44
2024-02-02T22:01:13.857Z,101347.66
2024-02-02T22:06:16.097Z,101344.41
2024-02-02T22:11:19.098Z,101357.25
2024-02-02T22:16:20.753Z,101364.09
2024-02-02T22:21:24.954Z,101350.16
2024-02-02T22:26:26.385Z,101363.06
2024-02-02T22:31:27.971Z,101359.72
2024-02-02T22:36:29.368Z,101361.72
2024-02-02T22:41:34.999Z,101362.47
2024-02-02T22:46:36.874Z,101364.28
2024-02-02T22:51:48.101Z,101359.31
2024-02-02T22:56:49.499Z,101356.38
2024-02-02T23:01:50.916Z,101342.34
2024-02-02T23:06:52.382Z,101345.69
2024-02-02T23:11:53.853Z,101335.69
2024-02-02T23:16:55.490Z,101349.53
2024-02-02T23:21:56.984Z,101354.84
2024-02-02T23:26:59.606Z,101354.28
2024-02-02T23:32:02.007Z,101351.44
2024-02-02T23:37:03.770Z,101348.00
2024-02-02T23:42:06.829Z,101337.19
2024-02-02T23:47:08.493Z,101336.34
2024-02-02T23:52:11.757Z,101335.69
2024-02-02T23:57:14.592Z,101324.50
